createdAt,value
2023-04-19T00:01:05.536Z,27.60
2023-04-19T00:03:32.356Z,27.60
2023-04-19T00:05:59.249Z,27.60
2023-04-19T00:08:26.392Z,27.60
2023-04-19T00:10:53.119Z,27.60
2023-04-19T00:13:19.929Z,27.70
2023-04-19T00:15:46.653Z,27.70
2023-04-19T00:18:13.198Z,27.60
2023-04-19T00:20:39.839Z,27.60
2023-04-19T00:23:06.459Z,27.60
2023-04-19T00:25:34.553Z,27.60
2023-04-19T00:28:01.304Z,27.60
2023-04-19T00:30:28.001Z,27.60
2023-04-19T00:32:54.663Z,27.60
2023-04-19T00:35:21.388Z,27.60
2023-04-19T00:37:48.122Z,27.50
2023-04-19T00:40:15.165Z,27.50
2023-04-19T00:42:42.559Z,27.50
2023-04-19T00:45:09.664Z,27.50
2023-04-19T00:47:36.492Z,27.50
2023-04-19T00:50:04.481Z,27.50
2023-04-19T00:52:33.216Z,27.50
2023-04-19T00:55:00.051Z,27.50
2023-04-19T00:57:27.050Z,27.50
2023-04-19T00:59:55.367Z,27.40
2023-04-19T01:02:22.353Z,27.50
2023-04-19T01:04:49.103Z,27.50
2023-04-19T01:07:16.087Z,27.40
2023-04-19T01:09:46.564Z,27.40
2023-04-19T01:12:13.093Z,27.50
2023-04-19T01:14:40.441Z,27.40
2023-04-19T01:17:08.486Z,27.40
2023-04-19T01:19:37.008Z,27.40
2023-04-19T01:22:04.062Z,27.40
2023-04-19T01:24:31.130Z,27.40
2023-04-19T01:26:57.815Z,27.30
2023-04-19T01:29:24.507Z,27.30
2023-04-19T01:31:53.537Z,27.30
2023-04-19T01:34:20.407Z,27.30
2023-04-19T01:36:47.129Z,27.30
2023-04-19T01:39:13.711Z,27.30
2023-04-19T01:41:40.521Z,27.30
2023-04-19T01:44:07.236Z,27.30
2023-04-19T01:46:33.840Z,27.30
2023-04-19T01:49:00.375Z,27.30
2023-04-19T01:51:27.310Z,27.30
2023-04-19T01:53:54.542Z,27.30
2023-04-19T01:56:24.150Z,27.30
2023-04-19T01:58:50.999Z,27.30
2023-04-19T02:01:17.570Z,27.30
2023-04-19T02:03:44.305Z,27.20
2023-04-19T02:06:15.165Z,27.20
2023-04-19T02:08:42.648Z,27.30
2023-04-19T02:11:10.362Z,27.20
2023-04-19T02:13:37.513Z,27.20
2023-04-19T02:16:05.800Z,27.20
2023-04-19T02:18:32.716Z,27.20
2023-04-19T02:20:59.601Z,27.20
2023-04-19T02:23:26.159Z,27.20
2023-04-19T02:25:53.343Z,27.20
2023-04-19T02:28:19.934Z,27.20
2023-04-19T02:30:46.714Z,27.20
2023-04-19T02:33:13.434Z,27.20
2023-04-19T02:35:40.130Z,27.10
2023-04-19T02:38:06.673Z,27.10
2023-04-19T02:40:33.500Z,27.10
2023-04-19T02:43:00.116Z,27.10
2023-04-19T02:45:26.652Z,27.10
2023-04-19T02:47:53.229Z,27.10
2023-04-19T02:50:19.940Z,27.10
2023-04-19T02:52:46.472Z,27.10
2023-04-19T02:55:13.104Z,27.10
2023-04-19T02:57:39.691Z,27.10
2023-04-19T03:00:08.658Z,27.00
2023-04-19T03:02:35.422Z,27.00
2023-04-19T03:05:02.347Z,27.00
2023-04-19T03:07:28.893Z,27.00
2023-04-19T03:09:55.490Z,27.00
2023-04-19T03:12:22.059Z,27.00
2023-04-19T03:14:49.376Z,27.00
2023-04-19T03:17:16.352Z,27.00
2023-04-19T03:19:42.892Z,27.00
2023-04-19T03:22:09.419Z,27.00
2023-04-19T03:24:37.747Z,27.00
2023-04-19T03:27:04.772Z,27.00
2023-04-19T03:29:31.317Z,27.00
2023-04-19T03:31:57.902Z,26.90
2023-04-19T03:34:24.524Z,26.90
2023-04-19T03:36:51.101Z,26.90
2023-04-19T03:39:17.735Z,26.90
2023-04-19T03:41:44.323Z,26.90
2023-04-19T03:44:10.916Z,27.00
2023-04-19T03:46:37.828Z,27.00
2023-04-19T03:49:04.539Z,26.90
2023-04-19T03:51:31.545Z,26.90
2023-04-19T03:53:58.074Z,26.90
2023-04-19T03:56:24.721Z,26.90
2023-04-19T03:58:51.787Z,26.90
2023-04-19T04:01:22.321Z,26.90
2023-04-19T04:03:49.426Z,26.90
2023-04-19T04:06:16.262Z,27.00
2023-04-19T04:08:42.777Z,26.90
2023-04-19T04:11:09.463Z,27.00
2023-04-19T04:13:36.187Z,27.00
2023-04-19T04:16:02.893Z,27.00
2023-04-19T04:18:29.654Z,27.00
2023-04-19T04:20:56.297Z,27.10
2023-04-19T04:23:23.427Z,27.10
2023-04-19T04:25:59.217Z,27.10
2023-04-19T04:28:25.918Z,27.10
2023-04-19T04:30:52.459Z,27.10
2023-04-19T04:33:19.069Z,27.20
2023-04-19T04:35:46.260Z,27.20
2023-04-19T04:38:23.684Z,27.20
2023-04-19T04:40:55.746Z,27.30
2023-04-19T04:43:23.944Z,27.40
2023-04-19T04:45:51.218Z,27.30
2023-04-19T04:48:18.080Z,27.30
2023-04-19T04:50:44.698Z,27.40
2023-04-19T04:53:13.904Z,27.40
2023-04-19T04:55:40.723Z,27.40
2023-04-19T04:58:07.644Z,27.40
2023-04-19T05:00:34.423Z,27.50
2023-04-19T05:03:02.817Z,27.50
2023-04-19T05:05:29.880Z,27.50
2023-04-19T05:07:56.439Z,27.50
2023-04-19T05:10:23.129Z,27.50
2023-04-19T05:12:49.698Z,27.50
2023-04-19T05:15:16.238Z,27.60
2023-04-19T05:17:43.364Z,27.60
2023-04-19T05:20:10.386Z,27.60
2023-04-19T05:22:37.364Z,27.60
2023-04-19T05:25:04.466Z,27.60
2023-04-19T05:27:31.057Z,27.70
2023-04-19T05:29:57.577Z,27.70
2023-04-19T05:32:24.286Z,27.70
2023-04-19T05:34:50.917Z,27.70
2023-04-19T05:37:17.433Z,27.80
2023-04-19T05:39:44.805Z,27.80
2023-04-19T05:42:11.602Z,27.80
2023-04-19T05:44:38.181Z,27.80
2023-04-19T05:47:05.315Z,27.80
2023-04-19T05:49:31.888Z,27.90
2023-04-19T05:51:58.449Z,27.90
2023-04-19T05:54:25.194Z,27.90
2023-04-19T05:56:51.785Z,27.90
2023-04-19T05:59:18.422Z,27.90
2023-04-19T06:01:45.245Z,27.90
2023-04-19T06:04:11.897Z,28.00
2023-04-19T06:06:38.593Z,28.00
2023-04-19T06:09:06.875Z,28.00
2023-04-19T06:11:42.982Z,28.00
2023-04-19T06:14:14.829Z,28.00
2023-04-19T06:16:42.253Z,28.00
2023-04-19T06:19:08.877Z,28.10
2023-04-19T06:21:35.706Z,28.10
2023-04-19T06:24:02.365Z,28.10
2023-04-19T06:26:28.948Z,28.20
2023-04-19T06:28:55.801Z,28.20
2023-04-19T06:31:22.712Z,28.10
2023-04-19T06:33:49.459Z,28.20
2023-04-19T06:36:16.165Z,28.20
2023-04-19T06:38:44.494Z,28.20
2023-04-19T06:41:11.033Z,28.30
2023-04-19T06:43:37.650Z,28.30
2023-04-19T06:46:07.390Z,28.30
2023-04-19T06:48:34.839Z,28.30
2023-04-19T06:51:01.607Z,28.30
2023-04-19T06:53:28.312Z,28.40
2023-04-19T06:56:00.892Z,28.30
2023-04-19T06:58:28.372Z,28.30
2023-04-19T07:00:54.991Z,28.30
2023-04-19T07:03:22.044Z,28.40
2023-04-19T07:05:48.868Z,28.40
2023-04-19T07:08:16.108Z,28.40
2023-04-19T07:10:43.740Z,28.40
2023-04-19T07:13:13.615Z,28.40
2023-04-19T07:15:40.607Z,28.40
2023-04-19T07:18:07.267Z,28.40
2023-04-19T07:20:34.312Z,28.40
2023-04-19T07:23:00.979Z,28.40
2023-04-19T07:25:27.764Z,28.40
2023-04-19T07:27:55.007Z,28.40
2023-04-19T07:30:22.003Z,28.30
2023-04-19T07:32:51.163Z,28.20
2023-04-19T07:35:19.426Z,28.00
2023-04-19T07:37:46.285Z,27.70
2023-04-19T07:40:13.186Z,27.60
2023-04-19T07:42:39.790Z,27.50
2023-04-19T07:45:07.017Z,27.40
2023-04-19T07:47:33.776Z,27.40
2023-04-19T07:50:00.501Z,27.40
2023-04-19T07:52:27.068Z,27.40
2023-04-19T07:54:53.602Z,27.40
2023-04-19T07:57:20.205Z,27.50
2023-04-19T07:59:46.744Z,27.50
2023-04-19T08:02:13.464Z,27.60
2023-04-19T08:04:40.392Z,27.70
2023-04-19T08:07:09.291Z,27.70
2023-04-19T08:09:37.717Z,27.80
2023-04-19T08:12:04.473Z,27.80
2023-04-19T08:14:40.001Z,27.90
2023-04-19T08:17:23.732Z,28.00
2023-04-19T08:19:52.817Z,28.00
2023-04-19T08:22:21.104Z,28.10
2023-04-19T08:24:51.680Z,28.20
2023-04-19T08:27:18.657Z,28.20
2023-04-19T08:29:45.769Z,28.20
2023-04-19T08:32:13.301Z,28.30
2023-04-19T08:34:40.483Z,28.30
2023-04-19T08:37:07.509Z,28.40
2023-04-19T08:39:35.026Z,28.50
2023-04-19T08:42:11.078Z,28.50
2023-04-19T08:45:09.489Z,28.50
2023-04-19T08:47:51.796Z,28.50
2023-04-19T08:50:33.239Z,28.50
2023-04-19T08:53:16.528Z,28.50
2023-04-19T08:56:08.783Z,28.40
2023-04-19T08:58:54.932Z,28.30
2023-04-19T09:01:34.938Z,28.20
2023-04-19T09:04:27.127Z,28.10
2023-04-19T09:06:54.849Z,28.00
2023-04-19T09:11:58.041Z,27.90
2023-04-19T09:14:26.273Z,27.80
2023-04-19T09:16:52.940Z,27.70
2023-04-19T09:19:24.674Z,27.60
2023-04-19T09:21:53.929Z,27.60
2023-04-19T09:25:15.399Z,27.60
2023-04-19T09:27:33.812Z,27.50
2023-04-19T09:30:03.657Z,27.40
2023-04-19T09:32:48.808Z,27.40
2023-04-19T09:35:16.043Z,27.40
2023-04-19T09:40:22.924Z,27.50
2023-04-19T09:48:04.466Z,27.90
2023-04-19T09:50:31.860Z,28.00
2023-04-19T09:52:59.716Z,28.10
2023-04-19T09:55:28.828Z,28.30
2023-04-19T09:57:56.458Z,28.50
2023-04-19T10:00:23.311Z,28.70
2023-04-19T10:02:55.819Z,28.90
2023-04-19T10:05:24.217Z,29.20
2023-04-19T10:07:53.736Z,29.30
2023-04-19T10:10:27.503Z,29.50
2023-04-19T10:15:52.406Z,30.10
2023-04-19T10:18:24.076Z,30.30
2023-04-19T10:21:02.103Z,30.60
2023-04-19T10:23:29.757Z,30.80
2023-04-19T10:25:57.801Z,31.00
2023-04-19T10:28:24.784Z,31.20
2023-04-19T10:31:03.573Z,31.40
2023-04-19T10:33:37.553Z,31.60
2023-04-19T10:36:08.191Z,31.70
2023-04-19T10:38:42.245Z,31.80
2023-04-19T10:41:15.421Z,31.90
2023-04-19T10:44:07.285Z,32.00
2023-04-19T10:46:35.897Z,32.00
2023-04-19T10:49:04.490Z,32.10
2023-04-19T10:51:36.897Z,32.10
2023-04-19T10:54:08.214Z,32.10
2023-04-19T10:56:34.784Z,32.10
2023-04-19T10:59:15.366Z,32.00
2023-04-19T11:01:46.666Z,32.00
2023-04-19T11:04:18.247Z,32.00
2023-04-19T11:06:53.755Z,31.90
2023-04-19T11:09:27.261Z,31.90
2023-04-19T11:11:57.556Z,31.90
2023-04-19T11:14:25.321Z,31.90
2023-04-19T11:16:52.034Z,31.90
2023-04-19T11:19:21.553Z,31.90
2023-04-19T11:21:49.047Z,31.90
2023-04-19T11:24:18.624Z,31.90
2023-04-19T11:26:46.065Z,31.90
2023-04-19T11:29:12.973Z,31.90
2023-04-19T11:31:39.706Z,31.90
2023-04-19T11:34:06.320Z,31.90
2023-04-19T11:36:33.835Z,31.90
2023-04-19T11:39:00.460Z,31.80
2023-04-19T11:41:27.048Z,31.70
2023-04-19T11:43:53.672Z,31.50
2023-04-19T11:46:20.276Z,31.40
2023-04-19T11:48:54.622Z,31.20
2023-04-19T11:51:21.512Z,31.00
2023-04-19T11:53:48.177Z,30.80
2023-04-19T11:56:16.191Z,30.60
2023-04-19T11:58:50.674Z,30.50
2023-04-19T12:01:20.087Z,30.10
2023-04-19T12:03:50.615Z,30.00
2023-04-19T12:06:23.110Z,29.80
2023-04-19T12:08:52.019Z,29.60
2023-04-19T12:11:21.522Z,29.50
2023-04-19T12:13:48.627Z,29.40
2023-04-19T12:16:15.257Z,29.20
2023-04-19T12:18:50.314Z,29.20
2023-04-19T12:21:34.170Z,28.90
2023-04-19T12:24:02.007Z,29.00
2023-04-19T12:26:29.864Z,29.00
2023-04-19T12:29:00.532Z,29.10
2023-04-19T12:31:27.476Z,29.10
2023-04-19T12:33:54.278Z,29.20
2023-04-19T12:36:21.152Z,29.20
2023-04-19T12:38:47.720Z,29.30
2023-04-19T12:41:14.318Z,29.50
2023-04-19T12:43:40.932Z,29.50
2023-04-19T12:46:07.531Z,29.50
2023-04-19T12:48:34.240Z,29.60
2023-04-19T12:51:00.806Z,29.60
2023-04-19T12:53:27.684Z,29.70
2023-04-19T12:55:54.238Z,29.70
2023-04-19T12:58:21.222Z,29.80
2023-04-19T13:00:49.097Z,29.90
2023-04-19T13:03:16.475Z,29.90
2023-04-19T13:05:43.155Z,30.00
2023-04-19T13:08:10.283Z,30.00
2023-04-19T13:10:36.961Z,30.10
2023-04-19T13:13:03.526Z,30.10
2023-04-19T13:15:30.151Z,30.20
2023-04-19T13:17:56.941Z,30.20
2023-04-19T13:20:23.594Z,30.20
2023-04-19T13:22:50.312Z,30.20
2023-04-19T13:25:16.888Z,30.30
2023-04-19T13:27:43.477Z,30.30
2023-04-19T13:30:10.534Z,30.30
2023-04-19T13:32:37.156Z,30.20
2023-04-19T13:35:03.879Z,30.30
2023-04-19T13:37:31.577Z,30.30
2023-04-19T13:40:10.666Z,30.30
2023-04-19T13:42:44.469Z,30.20
2023-04-19T13:45:11.396Z,30.20
2023-04-19T13:47:37.952Z,30.20
2023-04-19T13:50:04.806Z,30.20
2023-04-19T13:52:31.547Z,30.10
2023-04-19T13:54:58.109Z,30.10
2023-04-19T13:57:24.740Z,30.10
2023-04-19T13:59:51.336Z,30.00
2023-04-19T14:02:18.079Z,30.00
2023-04-19T14:04:44.742Z,29.90
2023-04-19T14:07:11.494Z,29.80
2023-04-19T14:09:38.148Z,29.80
2023-04-19T14:12:05.143Z,29.70
2023-04-19T14:14:32.515Z,29.70
2023-04-19T14:16:59.146Z,29.60
2023-04-19T14:19:26.207Z,29.60
2023-04-19T14:21:52.830Z,29.50
2023-04-19T14:24:19.389Z,29.40
2023-04-19T14:26:48.590Z,29.40
2023-04-19T14:29:18.841Z,29.30
2023-04-19T14:31:45.652Z,29.30
2023-04-19T14:34:12.274Z,29.20
2023-04-19T14:36:38.981Z,29.20
2023-04-19T14:39:06.043Z,29.10
2023-04-19T14:41:32.594Z,29.10
2023-04-19T14:43:59.123Z,29.00
2023-04-19T14:46:25.764Z,29.00
2023-04-19T14:48:52.673Z,29.00
2023-04-19T14:51:19.247Z,28.90
2023-04-19T14:53:45.842Z,28.90
2023-04-19T14:56:12.474Z,28.90
2023-04-19T14:58:39.061Z,28.90
2023-04-19T15:01:13.369Z,28.80
2023-04-19T15:03:40.181Z,28.80
2023-04-19T15:06:09.725Z,28.70
2023-04-19T15:08:36.322Z,28.70
2023-04-19T15:11:02.961Z,28.80
2023-04-19T15:13:29.757Z,28.70
2023-04-19T15:15:57.300Z,28.70
2023-04-19T15:18:23.947Z,28.60
2023-04-19T15:20:50.744Z,28.60
2023-04-19T15:23:17.318Z,28.60
2023-04-19T15:25:44.452Z,28.60
2023-04-19T15:28:11.053Z,28.60
2023-04-19T15:30:37.662Z,28.60
2023-04-19T15:33:04.209Z,28.60
2023-04-19T15:35:31.964Z,28.60
2023-04-19T15:37:58.537Z,28.60
2023-04-19T15:40:25.140Z,28.60
2023-04-19T15:42:51.710Z,28.60
2023-04-19T15:45:18.711Z,28.60
2023-04-19T15:47:45.388Z,28.60
2023-04-19T15:50:11.952Z,28.60
2023-04-19T15:52:38.556Z,28.70
2023-04-19T15:55:05.833Z,28.60
2023-04-19T15:57:32.412Z,28.60
2023-04-19T15:59:59.083Z,28.60
2023-04-19T16:02:25.973Z,28.60
2023-04-19T16:04:52.838Z,28.60
2023-04-19T16:07:19.662Z,28.60
2023-04-19T16:09:46.231Z,28.60
2023-04-19T16:12:12.795Z,28.60
2023-04-19T16:14:39.346Z,28.60
2023-04-19T16:17:06.218Z,28.60
2023-04-19T16:19:32.744Z,28.50
2023-04-19T16:22:01.978Z,28.50
2023-04-19T16:24:28.921Z,28.50
2023-04-19T16:26:55.487Z,28.60
2023-04-19T16:29:22.178Z,28.50
2023-04-19T16:31:51.313Z,28.50
2023-04-19T16:34:19.707Z,28.50
2023-04-19T16:36:46.432Z,28.50
2023-04-19T16:39:13.398Z,28.50
2023-04-19T16:41:40.052Z,28.50
2023-04-19T16:44:06.607Z,28.40
2023-04-19T16:46:33.321Z,28.40
2023-04-19T16:49:00.899Z,28.40
2023-04-19T16:51:28.228Z,28.50
2023-04-19T16:53:55.805Z,28.50
2023-04-19T16:56:22.403Z,28.30
2023-04-19T16:58:50.236Z,28.40
2023-04-19T17:01:17.214Z,28.40
2023-04-19T17:03:45.209Z,28.40
2023-04-19T17:06:12.018Z,28.50
2023-04-19T17:08:38.644Z,28.30
2023-04-19T17:11:05.268Z,28.30
2023-04-19T17:13:31.886Z,28.30
2023-04-19T17:15:58.498Z,28.40
2023-04-19T17:18:25.238Z,28.40
2023-04-19T17:20:51.903Z,28.50
2023-04-19T17:23:18.472Z,28.50
2023-04-19T17:25:45.865Z,28.60
2023-04-19T17:28:12.484Z,28.60
2023-04-19T17:30:39.130Z,28.60
2023-04-19T17:33:05.761Z,28.70
2023-04-19T17:35:32.479Z,28.70
2023-04-19T17:37:59.090Z,28.80
2023-04-19T17:40:26.910Z,28.80
2023-04-19T17:42:55.531Z,28.90
2023-04-19T17:45:23.115Z,28.90
2023-04-19T17:47:49.715Z,28.90
2023-04-19T17:50:16.498Z,28.90
2023-04-19T17:52:43.054Z,29.00
2023-04-19T17:55:09.704Z,29.00
2023-04-19T17:57:36.371Z,29.00
2023-04-19T18:00:07.186Z,29.10
2023-04-19T18:02:34.443Z,29.10
2023-04-19T18:05:01.860Z,29.10
2023-04-19T18:07:28.727Z,29.10
2023-04-19T18:09:55.257Z,29.20
2023-04-19T18:12:22.735Z,29.20
2023-04-19T18:14:49.268Z,29.20
2023-04-19T18:17:15.866Z,29.20
2023-04-19T18:19:42.466Z,29.20
2023-04-19T18:22:09.133Z,29.20
2023-04-19T18:24:35.750Z,29.20
2023-04-19T18:27:03.194Z,29.30
2023-04-19T18:29:29.773Z,29.30
2023-04-19T18:31:56.416Z,29.30
2023-04-19T18:34:23.130Z,29.30
2023-04-19T18:36:49.705Z,29.30
2023-04-19T18:39:18.741Z,29.20
2023-04-19T18:41:45.605Z,29.20
2023-04-19T18:46:41.606Z,29.20
2023-04-19T18:49:08.249Z,29.20
2023-04-19T18:51:34.838Z,29.20
2023-04-19T18:54:01.361Z,29.20
2023-04-19T18:57:01.349Z,29.20
2023-04-19T18:59:14.863Z,29.10
2023-04-19T19:01:41.850Z,29.10
2023-04-19T19:04:28.309Z,29.20
2023-04-19T19:06:55.720Z,29.10
2023-04-19T19:09:24.242Z,29.10
2023-04-19T19:11:56.700Z,29.10
2023-04-19T19:14:24.935Z,29.00
2023-04-19T19:16:52.923Z,29.20
2023-04-19T19:19:22.117Z,29.00
2023-04-19T19:21:48.839Z,29.00
2023-04-19T19:24:15.457Z,29.00
2023-04-19T19:26:42.012Z,29.00
2023-04-19T19:29:09.462Z,29.00
2023-04-19T19:31:36.479Z,29.00
2023-04-19T19:34:13.719Z,29.00
2023-04-19T19:36:49.051Z,28.90
2023-04-19T19:39:16.038Z,29.00
2023-04-19T19:44:12.575Z,29.00
2023-04-19T19:46:39.417Z,29.00
2023-04-19T19:49:06.596Z,29.00
2023-04-19T19:54:02.986Z,29.00
2023-04-19T19:56:29.750Z,29.00
2023-04-19T20:01:23.420Z,29.00
2023-04-19T20:03:50.422Z,29.00
2023-04-19T20:07:07.688Z,29.00
2023-04-19T20:09:04.385Z,29.00
2023-04-19T20:11:31.094Z,29.00
2023-04-19T20:13:57.638Z,29.00
2023-04-19T20:16:24.329Z,29.00
2023-04-19T20:18:52.596Z,29.00
2023-04-19T20:21:19.646Z,29.10
2023-04-19T20:23:46.877Z,29.00
2023-04-19T20:26:13.467Z,29.00
2023-04-19T20:28:40.125Z,29.00
2023-04-19T20:31:06.683Z,29.00
2023-04-19T20:33:33.268Z,29.00
2023-04-19T20:36:00.516Z,28.90
2023-04-19T20:38:27.124Z,28.90
2023-04-19T20:40:53.860Z,28.80
2023-04-19T20:43:20.517Z,28.90
2023-04-19T20:45:47.279Z,28.90
2023-04-19T20:48:13.970Z,28.90
2023-04-19T20:50:41.233Z,28.90
2023-04-19T20:53:07.765Z,28.90
2023-04-19T20:55:34.769Z,28.80
2023-04-19T20:58:02.420Z,28.80
2023-04-19T21:00:29.053Z,28.80
2023-04-19T21:02:55.873Z,28.70
2023-04-19T21:05:22.678Z,28.80
2023-04-19T21:07:49.241Z,28.70
2023-04-19T21:10:17.133Z,28.70
2023-04-19T21:12:43.815Z,28.60
2023-04-19T21:15:11.985Z,28.60
2023-04-19T21:17:38.799Z,28.60
2023-04-19T21:20:12.290Z,28.60
2023-04-19T21:22:43.740Z,28.60
2023-04-19T21:25:12.224Z,28.50
2023-04-19T21:27:39.203Z,28.50
2023-04-19T21:30:06.819Z,28.50
2023-04-19T21:32:33.620Z,28.50
2023-04-19T21:35:01.356Z,28.50
2023-04-19T21:37:28.515Z,28.40
2023-04-19T21:39:55.984Z,28.40
2023-04-19T21:42:22.536Z,28.40
2023-04-19T21:44:49.165Z,28.30
2023-04-19T21:47:15.729Z,28.30
2023-04-19T21:49:42.364Z,28.30
2023-04-19T21:52:08.985Z,28.30
2023-04-19T21:54:35.537Z,28.30
2023-04-19T21:57:02.768Z,28.20
2023-04-19T21:59:30.816Z,28.30
2023-04-19T22:01:58.829Z,28.30
2023-04-19T22:04:26.123Z,28.20
2023-04-19T22:06:52.665Z,28.20
2023-04-19T22:09:19.345Z,28.20
2023-04-19T22:11:46.017Z,28.20
2023-04-19T22:14:13.205Z,28.10
2023-04-19T22:16:39.876Z,28.20
2023-04-19T22:19:07.746Z,28.10
2023-04-19T22:21:34.361Z,28.10
2023-04-19T22:24:00.956Z,28.10
2023-04-19T22:26:27.857Z,28.10
2023-04-19T22:28:54.488Z,28.00
2023-04-19T22:31:21.103Z,28.00
2023-04-19T22:33:47.933Z,28.10
2023-04-19T22:36:14.521Z,28.00
2023-04-19T22:38:41.076Z,28.00
2023-04-19T22:41:07.661Z,28.00
2023-04-19T22:43:34.204Z,28.00
2023-04-19T22:46:01.081Z,27.90
2023-04-19T22:48:29.932Z,27.90
2023-04-19T22:50:56.845Z,27.90
2023-04-19T22:53:23.777Z,27.90
2023-04-19T22:55:51.246Z,27.90
2023-04-19T22:58:18.712Z,27.90
2023-04-19T23:00:45.450Z,27.90
2023-04-19T23:03:12.116Z,27.90
2023-04-19T23:05:40.096Z,27.90
2023-04-19T23:08:07.080Z,27.80
2023-04-19T23:10:37.915Z,27.80
2023-04-19T23:13:05.869Z,27.90
2023-04-19T23:15:32.944Z,27.80
2023-04-19T23:18:02.039Z,27.80
2023-04-19T23:20:29.060Z,27.80
2023-04-19T23:22:55.842Z,27.80
2023-04-19T23:25:22.616Z,27.80
2023-04-19T23:27:50.295Z,27.70
2023-04-19T23:30:17.253Z,27.70
2023-04-19T23:32:43.835Z,27.70
2023-04-19T23:35:10.609Z,27.70
2023-04-19T23:37:37.828Z,27.70
2023-04-19T23:40:08.978Z,27.70
2023-04-19T23:42:38.648Z,27.70
2023-04-19T23:45:06.719Z,27.70
2023-04-19T23:47:33.910Z,27.60
2023-04-19T23:50:00.729Z,27.70
2023-04-19T23:52:27.456Z,27.70
2023-04-19T23:54:54.000Z,27.60
2023-04-19T23:57:20.609Z,27.70
2023-04-19T23:59:47.149Z,27.60
